Time;durP1;ratioP1;P1;durP2;ratioP2;P2;SDS_P1;SDS_P2;PMS_P1;PMS_P2;Temp;Humidity;BMP_temperature;BMP_pressure;BME280_temperature;BME280_humidity;BME280_pressure;Samples;Min_cycle;Max_cycle;Signal;HPM_P1;HPM_P2
2022/05/18 00:00:56;;;;;;;5.78;4.03;;;14.20;99.90;;;;;;4977781;28;20072;-77
2022/05/18 00:03:26;;;;;;;4.65;4.05;;;14.20;99.90;;;;;;4981935;28;20534;-77
2022/05/18 00:05:52;;;;;;;6.78;4.15;;;14.20;99.90;;;;;;4979952;28;20046;-77
2022/05/18 00:08:18;;;;;;;6.82;3.88;;;14.10;99.90;;;;;;4983714;28;20473;-77
2022/05/18 00:10:46;;;;;;;3.85;3.42;;;14.00;99.90;;;;;;4982152;28;20042;-77
2022/05/18 00:13:12;;;;;;;4.75;3.80;;;14.00;99.90;;;;;;4979782;28;20038;-77
2022/05/18 00:15:38;;;;;;;5.53;4.13;;;14.10;99.90;;;;;;4980726;28;20081;-77
2022/05/18 00:18:05;;;;;;;5.32;3.58;;;14.00;99.90;;;;;;4980355;28;20038;-77
2022/05/18 00:20:30;;;;;;;6.55;3.90;;;14.00;99.90;;;;;;4980987;28;20027;-77
2022/05/18 00:23:02;;;;;;;6.15;4.00;;;13.90;99.90;;;;;;4980787;28;20588;-76
2022/05/18 00:25:32;;;;;;;4.03;3.60;;;13.90;99.90;;;;;;4977148;28;20027;-77
2022/05/18 00:27:57;;;;;;;3.90;3.40;;;13.90;99.90;;;;;;4979574;28;20041;-77
2022/05/18 00:30:24;;;;;;;5.22;3.50;;;13.90;99.90;;;;;;4983506;28;20030;-77
2022/05/18 00:32:50;;;;;;;8.25;4.07;;;13.80;99.90;;;;;;4986592;28;20458;-77
2022/05/18 00:35:17;;;;;;;4.65;3.70;;;13.80;99.90;;;;;;4985211;28;20117;-77
2022/05/18 00:37:43;;;;;;;5.72;4.18;;;13.80;99.90;;;;;;4985982;28;20438;-76
2022/05/18 00:40:10;;;;;;;5.35;4.07;;;13.50;99.90;;;;;;4983916;28;20113;-77
2022/05/18 00:42:36;;;;;;;6.18;3.80;;;13.50;99.90;;;;;;4985388;28;20076;-77
2022/05/18 00:45:02;;;;;;;6.60;3.60;;;13.60;99.90;;;;;;4979912;28;20042;-77
2022/05/18 00:47:28;;;;;;;7.25;4.60;;;13.60;99.90;;;;;;4985190;28;20045;-76
2022/05/18 00:50:00;;;;;;;7.28;3.80;;;13.60;99.90;;;;;;4980940;28;20023;-77
2022/05/18 00:52:31;;;;;;;7.85;4.18;;;13.50;99.90;;;;;;4984642;28;20038;-76
2022/05/18 00:54:58;;;;;;;10.85;4.88;;;13.50;99.90;;;;;;4982357;28;20019;-77
2022/05/18 00:57:46;;;;;;;5.20;3.80;;;13.50;99.90;;;;;;4980596;28;20704;-77
2022/05/18 01:00:15;;;;;;;6.15;4.65;;;13.50;99.90;;;;;;4977951;28;20347;-76
2022/05/18 01:02:46;;;;;;;5.20;3.67;;;13.50;99.90;;;;;;4981551;28;20086;-77
2022/05/18 01:05:17;;;;;;;3.90;3.45;;;13.40;99.90;;;;;;4981845;28;20023;-77
2022/05/18 01:07:49;;;;;;;5.68;4.50;;;13.40;99.90;;;;;;4963087;28;20038;-77
2022/05/18 01:10:14;;;;;;;4.32;3.92;;;13.40;99.90;;;;;;4981991;28;20030;-77
2022/05/18 01:12:40;;;;;;;4.63;3.35;;;13.00;99.90;;;;;;4981328;28;20046;-76
2022/05/18 01:15:12;;;;;;;5.22;3.78;;;13.00;99.90;;;;;;4979457;28;20031;-77
2022/05/18 01:17:40;;;;;;;5.60;3.80;;;13.00;99.90;;;;;;4979565;28;20470;-77
2022/05/18 01:20:11;;;;;;;5.03;3.30;;;12.90;99.90;;;;;;4983792;28;20192;-76
2022/05/18 01:22:58;;;;;;;4.45;3.92;;;12.90;99.90;;;;;;4982754;28;20030;-77
2022/05/18 01:25:29;;;;;;;5.03;3.78;;;12.80;99.90;;;;;;4983282;28;21033;-77
2022/05/18 01:27:57;;;;;;;4.82;3.78;;;12.90;99.90;;;;;;4983305;28;20034;-77
2022/05/18 01:30:24;;;;;;;4.35;3.53;;;13.00;99.90;;;;;;4982862;28;20069;-77
2022/05/18 01:32:52;;;;;;;4.30;3.25;;;13.00;99.90;;;;;;4985965;28;20104;-77
2022/05/18 01:35:22;;;;;;;5.35;3.55;;;13.00;99.90;;;;;;4983568;28;20035;-77
2022/05/18 01:37:48;;;;;;;3.83;3.30;;;12.80;99.90;;;;;;4985436;28;20538;-76
2022/05/18 01:40:41;;;;;;;4.07;3.67;;;12.80;99.90;;;;;;4985716;28;20036;-77
2022/05/18 01:43:25;;;;;;;3.45;3.15;;;12.80;99.90;;;;;;4983991;28;20038;-76
2022/05/18 01:45:56;;;;;;;3.50;3.20;;;12.60;99.90;;;;;;4982383;28;20030;-77
2022/05/18 01:48:27;;;;;;;3.90;3.50;;;12.70;99.90;;;;;;4986121;28;20092;-77
2022/05/18 01:50:52;;;;;;;3.63;3.33;;;12.70;99.90;;;;;;4988045;28;20022;-77
2022/05/18 01:53:18;;;;;;;4.45;3.17;;;12.70;99.90;;;;;;4987507;28;20525;-76
2022/05/18 01:55:45;;;;;;;7.55;3.72;;;12.70;99.90;;;;;;4982875;28;20093;-77
2022/05/18 01:58:13;;;;;;;4.55;3.50;;;12.70;99.90;;;;;;4982133;28;20456;-77
2022/05/18 02:00:39;;;;;;;4.35;3.60;;;12.70;99.90;;;;;;4982809;28;20038;-77
2022/05/18 02:03:05;;;;;;;4.60;3.45;;;12.70;99.90;;;;;;4983206;28;20145;-77
2022/05/18 02:05:31;;;;;;;3.95;3.55;;;12.60;99.90;;;;;;4982609;28;20129;-76
2022/05/18 02:07:57;;;;;;;2.55;2.35;;;12.50;99.90;;;;;;4984534;28;20121;-77
2022/05/18 02:10:23;;;;;;;3.60;3.22;;;12.50;99.90;;;;;;4982043;28;20030;-77
2022/05/18 02:12:50;;;;;;;3.22;2.92;;;12.50;99.90;;;;;;4982879;28;20038;-77
2022/05/18 02:15:16;;;;;;;4.47;3.17;;;12.40;99.90;;;;;;4980522;28;20062;-77
2022/05/18 02:17:43;;;;;;;4.88;3.10;;;12.50;99.90;;;;;;4980493;28;20212;-77
2022/05/18 02:20:10;;;;;;;4.15;3.22;;;12.50;99.90;;;;;;4983668;28;20898;-77
2022/05/18 02:22:35;;;;;;;3.47;3.10;;;12.50;99.90;;;;;;4984141;28;20041;-77
2022/05/18 02:25:01;;;;;;;4.10;3.70;;;12.50;99.90;;;;;;4984920;28;20030;-76
2022/05/18 02:27:29;;;;;;;3.33;2.00;;;12.40;99.90;;;;;;4982129;28;20393;-77
2022/05/18 02:29:54;;;;;;;3.28;2.50;;;12.10;99.90;;;;;;4964909;28;20045;-76
2022/05/18 02:32:20;;;;;;;3.15;2.70;;;12.10;99.90;;;;;;4981512;28;20039;-77
2022/05/18 02:34:46;;;;;;;3.00;2.25;;;12.00;99.90;;;;;;4983612;28;20045;-76
2022/05/18 02:37:11;;;;;;;2.85;2.55;;;11.80;99.90;;;;;;4964634;28;20377;-77
2022/05/18 02:39:37;;;;;;;2.25;2.05;;;11.80;99.90;;;;;;4987791;28;20041;-77
2022/05/18 02:42:03;;;;;;;3.88;3.47;;;11.80;99.90;;;;;;4982937;28;20042;-77
2022/05/18 02:44:29;;;;;;;3.97;3.15;;;11.90;99.90;;;;;;4984784;28;20026;-77
2022/05/18 02:47:01;;;;;;;4.80;3.28;;;11.80;99.90;;;;;;4965371;28;20088;-77
2022/05/18 02:49:27;;;;;;;4.35;3.25;;;11.90;99.90;;;;;;4981049;28;20046;-77
2022/05/18 02:51:53;;;;;;;4.10;3.70;;;11.80;99.90;;;;;;4969502;28;20062;-77
2022/05/18 02:57:06;;;;;;;4.95;3.60;;;11.80;99.90;;;;;;4982939;28;20069;-77
2022/05/18 02:59:32;;;;;;;5.35;3.80;;;11.90;99.90;;;;;;4982363;28;20084;-77
2022/05/18 03:01:59;;;;;;;4.35;3.72;;;11.90;99.90;;;;;;4982697;28;20054;-77
2022/05/18 03:04:25;;;;;;;3.40;2.83;;;11.80;99.90;;;;;;4982082;28;20102;-76
2022/05/18 03:06:52;;;;;;;3.30;2.97;;;11.60;99.90;;;;;;4982485;28;20072;-76
2022/05/18 03:09:18;;;;;;;4.05;2.90;;;11.30;99.90;;;;;;4984711;28;20149;-77
2022/05/18 03:11:44;;;;;;;4.28;3.45;;;11.40;99.90;;;;;;4987309;28;20453;-76
2022/05/18 03:14:10;;;;;;;2.78;2.53;;;11.50;99.90;;;;;;4984126;28;20105;-77
2022/05/18 03:16:37;;;;;;;2.67;2.40;;;11.40;99.90;;;;;;4983991;28;20137;-76
2022/05/18 03:19:03;;;;;;;2.10;1.90;;;11.40;99.90;;;;;;4981720;28;20053;-77
2022/05/18 03:24:13;;;;;;;2.10;1.85;;;11.10;99.90;;;;;;4966034;28;20036;-76
2022/05/18 03:26:38;;;;;;;1.95;1.85;;;11.30;99.90;;;;;;4981438;28;20433;-76
2022/05/18 03:29:04;;;;;;;2.20;2.00;;;11.40;99.90;;;;;;4980861;28;20030;-76
2022/05/18 03:31:30;;;;;;;2.20;2.10;;;11.40;99.90;;;;;;4982668;28;20446;-77
2022/05/18 03:33:56;;;;;;;2.58;2.13;;;11.30;99.90;;;;;;4979641;28;20026;-75
2022/05/18 03:36:22;;;;;;;2.20;2.00;;;11.30;99.90;;;;;;4964399;28;20038;-75
2022/05/18 03:38:50;;;;;;;3.08;2.78;;;11.40;99.90;;;;;;4984697;28;20466;-76
2022/05/18 03:41:16;;;;;;;3.53;2.30;;;11.40;99.90;;;;;;4976014;28;20060;-76
2022/05/18 03:43:42;;;;;;;4.57;3.45;;;11.30;99.90;;;;;;4978082;28;20126;-76
2022/05/18 03:46:09;;;;;;;4.45;3.30;;;11.30;99.90;;;;;;4978262;28;20046;-76
2022/05/18 03:48:35;;;;;;;3.83;3.08;;;11.20;99.90;;;;;;4984067;28;20033;-76
2022/05/18 03:51:06;;;;;;;4.38;3.92;;;11.30;99.90;;;;;;4985193;28;20037;-76
2022/05/18 03:53:32;;;;;;;7.53;3.78;;;11.40;99.90;;;;;;4968285;28;20030;-76
2022/05/18 03:55:59;;;;;;;5.60;3.20;;;11.40;99.90;;;;;;4982325;28;20034;-77
2022/05/18 03:58:25;;;;;;;4.53;3.60;;;11.50;99.90;;;;;;4981817;28;20157;-76
2022/05/18 04:00:53;;;;;;;5.35;3.30;;;11.60;99.90;;;;;;4982460;28;20498;-76
2022/05/18 04:03:21;;;;;;;6.32;3.30;;;11.60;99.90;;;;;;4980983;28;20054;-76
2022/05/18 04:05:50;;;;;;;3.33;3.03;;;11.60;99.90;;;;;;4984736;28;20053;-76
2022/05/18 04:08:17;;;;;;;5.97;3.08;;;11.70;99.90;;;;;;4983993;28;20030;-76
2022/05/18 04:10:42;;;;;;;3.60;2.72;;;11.70;99.90;;;;;;4984480;28;20489;-77
2022/05/18 04:13:13;;;;;;;3.35;2.70;;;11.80;99.90;;;;;;4982583;28;20035;-76
2022/05/18 04:15:40;;;;;;;2.60;2.40;;;11.70;99.90;;;;;;4983279;28;20529;-76
2022/05/18 04:18:06;;;;;;;3.75;2.13;;;11.70;99.90;;;;;;4984069;28;20058;-76
2022/05/18 04:20:33;;;;;;;2.70;2.45;;;11.60;99.90;;;;;;4986083;28;20082;-75
2022/05/18 04:22:59;;;;;;;2.75;2.55;;;11.70;99.90;;;;;;4983547;28;20165;-77
2022/05/18 04:25:28;;;;;;;3.35;3.00;;;11.60;99.90;;;;;;4983932;28;20127;-76
2022/05/18 04:27:55;;;;;;;4.88;3.00;;;11.60;99.90;;;;;;4984211;28;20378;-76
2022/05/18 04:30:25;;;;;;;4.30;3.08;;;11.70;99.90;;;;;;4984302;28;20367;-76
2022/05/18 04:32:51;;;;;;;3.17;2.88;;;11.80;99.90;;;;;;4981025;28;20144;-76
2022/05/18 04:35:21;;;;;;;4.55;3.30;;;11.80;99.90;;;;;;4984380;28;20088;-76
2022/05/18 04:37:47;;;;;;;6.03;4.13;;;11.80;99.90;;;;;;4983905;28;20039;-76
2022/05/18 04:40:13;;;;;;;4.85;4.00;;;11.80;99.90;;;;;;4967685;28;20037;-77
2022/05/18 04:42:38;;;;;;;4.97;3.38;;;11.90;99.90;;;;;;4984888;28;20038;-76
2022/05/18 04:45:07;;;;;;;6.28;4.03;;;12.20;99.90;;;;;;4991547;28;20089;-76
2022/05/18 04:47:33;;;;;;;4.45;3.67;;;12.30;99.90;;;;;;4985485;28;20031;-76
2022/05/18 04:49:58;;;;;;;4.35;3.70;;;12.40;99.90;;;;;;4982471;28;20462;-76
2022/05/18 04:52:24;;;;;;;3.90;3.15;;;12.50;99.90;;;;;;4984388;28;20119;-77
2022/05/18 04:54:50;;;;;;;4.03;3.30;;;12.50;99.90;;;;;;4988578;28;20474;-77
2022/05/18 04:57:16;;;;;;;4.28;2.80;;;12.50;99.90;;;;;;4987209;28;20035;-77
2022/05/18 04:59:42;;;;;;;3.67;3.28;;;12.50;99.90;;;;;;4990504;28;20034;-76
2022/05/18 05:02:08;;;;;;;4.18;3.17;;;12.60;99.90;;;;;;4963942;28;20054;-77
2022/05/18 05:04:35;;;;;;;6.97;3.58;;;12.60;99.90;;;;;;4969600;28;21136;-76
2022/05/18 05:07:01;;;;;;;4.78;4.30;;;12.60;99.90;;;;;;4966705;28;20037;-76
2022/05/18 05:09:27;;;;;;;5.35;4.85;;;12.60;99.90;;;;;;4966613;28;20438;-76
2022/05/18 05:11:53;;;;;;;11.82;4.35;;;12.70;99.90;;;;;;4969407;28;20043;-77
2022/05/18 05:14:19;;;;;;;6.53;4.78;;;12.70;99.90;;;;;;4968779;28;20030;-76
2022/05/18 05:16:45;;;;;;;8.93;4.85;;;12.80;99.90;;;;;;4949969;28;20035;-76
2022/05/18 05:19:11;;;;;;;5.60;4.45;;;12.80;99.90;;;;;;4967717;28;20097;-77
2022/05/18 05:21:42;;;;;;;8.75;5.22;;;12.90;99.90;;;;;;4969044;28;20272;-77
2022/05/18 05:24:13;;;;;;;6.40;4.80;;;13.00;99.90;;;;;;4951125;28;20031;-76
2022/05/18 05:26:40;;;;;;;6.72;4.28;;;13.20;99.90;;;;;;4966877;28;20114;-76
2022/05/18 05:29:06;;;;;;;9.48;5.25;;;13.40;99.90;;;;;;4967778;28;20034;-77
2022/05/18 05:31:32;;;;;;;8.02;5.65;;;13.50;99.90;;;;;;4977034;28;20584;-77
2022/05/18 05:33:58;;;;;;;6.35;5.22;;;13.70;99.90;;;;;;4994611;28;20358;-76
2022/05/18 05:36:25;;;;;;;8.40;5.95;;;13.80;99.90;;;;;;4987742;28;20050;-77
2022/05/18 05:38:50;;;;;;;7.70;5.18;;;14.00;99.90;;;;;;4984507;28;20045;-76
2022/05/18 05:41:17;;;;;;;8.82;5.50;;;14.10;99.90;;;;;;4983302;28;20047;-77
2022/05/18 05:43:43;;;;;;;7.05;4.75;;;14.40;99.90;;;;;;4990099;28;20034;-77
2022/05/18 05:46:14;;;;;;;8.57;5.05;;;14.50;99.90;;;;;;4970178;28;20407;-77
2022/05/18 05:48:42;;;;;;;9.23;5.38;;;14.80;99.90;;;;;;4988483;28;20042;-77
2022/05/18 05:51:12;;;;;;;7.40;5.32;;;14.80;99.90;;;;;;4986124;28;20026;-77
2022/05/18 05:53:45;;;;;;;8.52;5.30;;;15.10;99.90;;;;;;4984405;28;20038;-77
2022/05/18 05:56:12;;;;;;;7.78;5.78;;;15.20;99.90;;;;;;4970964;28;20533;-77
2022/05/18 05:58:39;;;;;;;9.38;5.97;;;15.50;99.90;;;;;;4992501;28;20482;-77
2022/05/18 06:01:07;;;;;;;9.90;6.70;;;15.60;99.90;;;;;;4979562;28;20085;-76
2022/05/18 06:03:34;;;;;;;9.20;6.25;;;15.60;99.90;;;;;;4970927;28;20051;-77
2022/05/18 06:06:00;;;;;;;10.02;6.07;;;15.70;99.90;;;;;;4969596;28;20511;-76
2022/05/18 06:08:26;;;;;;;14.93;7.00;;;15.90;99.90;;;;;;4970518;28;20046;-76
2022/05/18 06:10:53;;;;;;;10.70;7.50;;;16.10;99.90;;;;;;4971125;28;20022;-76
2022/05/18 06:13:19;;;;;;;10.40;6.93;;;16.30;99.90;;;;;;4970780;28;20026;-76
2022/05/18 06:15:44;;;;;;;9.80;7.72;;;16.50;99.90;;;;;;4973721;28;20048;-76
2022/05/18 06:18:10;;;;;;;10.95;7.32;;;16.60;99.90;;;;;;4970463;28;20043;-76
2022/05/18 06:20:36;;;;;;;10.30;6.82;;;16.60;99.90;;;;;;4967498;28;20074;-76
2022/05/18 06:23:07;;;;;;;11.98;7.50;;;16.80;99.90;;;;;;4949437;28;20035;-77
2022/05/18 06:25:33;;;;;;;10.95;7.00;;;16.90;99.90;;;;;;4954139;28;20035;-77
2022/05/18 06:27:59;;;;;;;10.95;6.68;;;17.00;99.90;;;;;;4972548;28;20023;-77
2022/05/18 06:30:24;;;;;;;9.93;6.90;;;17.20;99.90;;;;;;4951143;28;20441;-77
2022/05/18 06:32:50;;;;;;;11.93;7.28;;;17.40;99.90;;;;;;4969421;28;20363;-77
2022/05/18 06:35:16;;;;;;;8.73;6.40;;;17.40;99.90;;;;;;4971428;28;20039;-77
2022/05/18 06:37:42;;;;;;;12.93;7.72;;;17.60;99.90;;;;;;4968967;28;20041;-76
2022/05/18 06:40:09;;;;;;;10.88;7.45;;;17.70;99.90;;;;;;4969332;28;20101;-76
2022/05/18 06:42:35;;;;;;;12.13;7.20;;;17.70;99.90;;;;;;4968936;28;20046;-77
2022/05/18 06:45:03;;;;;;;12.25;7.57;;;17.60;99.90;;;;;;4970515;28;20426;-76
2022/05/18 06:47:30;;;;;;;9.73;7.45;;;17.50;99.90;;;;;;4970315;28;20042;-77
2022/05/18 06:49:56;;;;;;;11.60;6.85;;;17.60;99.90;;;;;;4949700;28;20090;-77
2022/05/18 06:52:23;;;;;;;10.48;6.88;;;17.70;99.90;;;;;;4969703;28;20037;-76
2022/05/18 06:54:50;;;;;;;11.07;6.63;;;18.00;99.90;;;;;;4976443;28;20035;-76
2022/05/18 06:57:16;;;;;;;11.30;6.80;;;18.20;99.90;;;;;;4974696;28;20077;-77
2022/05/18 06:59:43;;;;;;;9.68;7.03;;;18.30;99.90;;;;;;4971550;28;20411;-76
2022/05/18 07:02:09;;;;;;;11.73;7.20;;;18.50;99.90;;;;;;4976127;28;20111;-77
2022/05/18 07:04:35;;;;;;;11.38;7.07;;;18.60;99.90;;;;;;4995953;28;20137;-77
2022/05/18 07:07:04;;;;;;;10.02;7.25;;;18.70;99.90;;;;;;4990506;28;20031;-77
2022/05/18 07:09:30;;;;;;;7.95;5.40;;;18.90;99.90;;;;;;4988442;28;20129;-75
2022/05/18 07:11:56;;;;;;;9.45;6.18;;;18.90;99.90;;;;;;4992521;28;20038;-76
2022/05/18 07:14:26;;;;;;;8.75;6.15;;;19.00;99.90;;;;;;4995493;28;20034;-77
2022/05/18 07:16:53;;;;;;;9.95;6.18;;;19.10;99.90;;;;;;4991835;28;20030;-76
2022/05/18 07:19:19;;;;;;;8.25;6.35;;;19.20;99.90;;;;;;4994190;28;20041;-77
2022/05/18 07:21:47;;;;;;;9.15;6.15;;;19.30;99.90;;;;;;4992585;28;20045;-76
2022/05/18 07:24:14;;;;;;;12.15;7.03;;;19.40;99.90;;;;;;4990082;28;20034;-76
2022/05/18 07:26:41;;;;;;;10.20;6.15;;;19.60;99.90;;;;;;4993925;28;20038;-76
2022/05/18 07:29:09;;;;;;;7.05;5.10;;;19.80;99.90;;;;;;4978931;28;20030;-76
2022/05/18 07:34:21;;;;;;;13.13;5.70;;;20.00;99.90;;;;;;4993072;28;20505;-77
2022/05/18 07:36:48;;;;;;;6.83;5.57;;;20.10;99.90;;;;;;4992642;28;20049;-77
2022/05/18 07:39:14;;;;;;;8.38;5.40;;;20.20;99.90;;;;;;4984834;28;20304;-77
2022/05/18 07:41:40;;;;;;;6.78;4.75;;;20.20;99.90;;;;;;4986373;28;20042;-77
2022/05/18 07:44:05;;;;;;;8.98;5.25;;;20.30;99.40;;;;;;4991674;28;20049;-77
2022/05/18 07:46:33;;;;;;;7.95;4.93;;;20.60;97.10;;;;;;4993408;28;20088;-76
2022/05/18 07:48:58;;;;;;;8.95;5.05;;;20.70;96.80;;;;;;4987607;28;20042;-76
2022/05/18 07:51:24;;;;;;;8.43;5.22;;;20.60;96.70;;;;;;4990677;28;20116;-77
2022/05/18 07:53:50;;;;;;;9.13;4.63;;;20.80;96.60;;;;;;4992180;28;20113;-76
2022/05/18 07:56:15;;;;;;;6.15;4.13;;;20.70;94.80;;;;;;4987943;28;20041;-76
2022/05/18 07:58:42;;;;;;;6.90;4.32;;;20.90;96.10;;;;;;4985311;28;20085;-76
2022/05/18 08:01:08;;;;;;;6.82;4.30;;;21.00;94.00;;;;;;4988947;28;20950;-77
2022/05/18 08:03:34;;;;;;;5.95;4.22;;;21.10;93.30;;;;;;4971577;28;20054;-77
2022/05/18 08:06:01;;;;;;;6.00;3.60;;;21.20;96.10;;;;;;4984082;28;20536;-76
2022/05/18 08:08:26;;;;;;;5.47;4.38;;;21.20;90.40;;;;;;4984932;28;20082;-77
2022/05/18 08:16:22;;;;;;;5.32;3.97;;;21.30;88.80;;;;;;4984567;28;20042;-76
2022/05/18 08:18:49;;;;;;;4.03;3.63;;;21.40;90.10;;;;;;4982170;28;20051;-76
2022/05/18 08:21:14;;;;;;;6.28;3.75;;;21.40;85.00;;;;;;4984422;28;20686;-76
2022/05/18 08:23:41;;;;;;;6.85;3.78;;;21.50;90.90;;;;;;4968418;28;20039;-76
2022/05/18 08:26:07;;;;;;;4.75;3.65;;;21.50;87.80;;;;;;4982328;28;20040;-77
2022/05/18 08:28:34;;;;;;;5.32;3.70;;;21.60;84.80;;;;;;4994237;28;20064;-77
2022/05/18 08:30:59;;;;;;;4.50;3.75;;;21.80;87.10;;;;;;4971004;28;20070;-76
2022/05/18 08:33:28;;;;;;;5.32;3.40;;;22.00;88.20;;;;;;4989007;28;20034;-76
2022/05/18 08:35:54;;;;;;;3.88;3.10;;;22.10;82.70;;;;;;4984380;28;20039;-77
2022/05/18 08:38:20;;;;;;;3.60;2.50;;;22.40;89.80;;;;;;4994694;28;20038;-76
2022/05/18 08:40:54;;;;;;;3.95;2.78;;;22.60;68.10;;;;;;4991646;28;20102;-76
2022/05/18 08:43:42;;;;;;;4.75;3.20;;;22.70;65.70;;;;;;4993162;28;20025;-76
2022/05/18 08:46:17;;;;;;;5.63;2.47;;;22.70;63.80;;;;;;4992067;28;20030;-77
2022/05/18 08:48:55;;;;;;;4.03;2.72;;;22.90;62.90;;;;;;4984078;28;20044;-77
2022/05/18 08:51:57;;;;;;;3.60;2.95;;;22.80;63.20;;;;;;4988066;28;20081;-76
2022/05/18 08:54:52;;;;;;;3.78;3.00;;;22.70;71.30;;;;;;4985563;28;20073;-76
2022/05/18 08:57:21;;;;;;;5.57;3.20;;;23.00;66.30;;;;;;4989198;28;20034;-77
2022/05/18 08:59:51;;;;;;;4.68;2.60;;;23.00;68.40;;;;;;4988546;28;20045;-77
2022/05/18 09:02:23;;;;;;;3.25;2.67;;;23.40;62.90;;;;;;4988278;28;20054;-77
2022/05/18 09:04:58;;;;;;;3.38;2.78;;;23.40;62.80;;;;;;4988427;28;20026;-76
2022/05/18 09:07:31;;;;;;;3.70;3.03;;;23.60;64.60;;;;;;4993237;28;20169;-77
2022/05/18 09:10:13;;;;;;;4.07;2.95;;;23.60;65.60;;;;;;4990396;28;20038;-77
2022/05/18 09:12:41;;;;;;;4.22;2.97;;;23.90;62.00;;;;;;4990485;28;20035;-77
2022/05/18 09:15:12;;;;;;;3.38;2.80;;;23.90;64.60;;;;;;4971530;28;20038;-76
2022/05/18 09:17:49;;;;;;;4.20;2.40;;;23.80;70.90;;;;;;4990668;28;20097;-77
2022/05/18 09:20:38;;;;;;;3.47;2.67;;;23.50;64.10;;;;;;4988753;28;20042;-76
2022/05/18 09:23:41;;;;;;;4.22;2.90;;;23.80;57.50;;;;;;4989923;28;20118;-77
2022/05/18 09:26:35;;;;;;;3.40;2.58;;;23.60;59.50;;;;;;4972743;28;20129;-76
2022/05/18 09:29:04;;;;;;;3.97;3.08;;;23.90;65.10;;;;;;4991855;28;20025;-76
2022/05/18 09:32:00;;;;;;;5.15;3.25;;;23.90;66.30;;;;;;4990459;28;20038;-76
2022/05/18 09:34:48;;;;;;;4.38;2.40;;;23.80;59.20;;;;;;4989020;28;20046;-76
2022/05/18 09:37:25;;;;;;;;;;;24.20;56.70;;;;;;4986842;28;20050;-76
2022/05/18 09:39:57;;;;;;;4.03;2.80;;;24.30;55.30;;;;;;4990522;28;19909;-77
2022/05/18 09:42:28;;;;;;;4.43;2.78;;;23.90;55.80;;;;;;4987065;28;20086;-77
2022/05/18 09:45:06;;;;;;;3.15;2.85;;;23.80;61.30;;;;;;4993911;28;20034;-77
2022/05/18 09:47:39;;;;;;;3.72;2.90;;;23.80;64.50;;;;;;4996846;28;20036;-76
2022/05/18 09:50:08;;;;;;;4.22;2.95;;;23.80;64.50;;;;;;4990032;28;20045;-77
2022/05/18 09:52:37;;;;;;;4.30;3.20;;;23.80;61.80;;;;;;4992569;28;20039;-77
2022/05/18 09:55:07;;;;;;;6.15;3.30;;;23.90;61.10;;;;;;4999993;28;20033;-76
2022/05/18 09:57:38;;;;;;;4.80;2.88;;;24.20;63.80;;;;;;4990355;28;20043;-76
2022/05/18 10:00:10;;;;;;;5.03;3.00;;;24.20;56.50;;;;;;4991356;28;20034;-76
2022/05/18 10:07:27;;;;;;;4.22;2.65;;;24.00;59.60;;;;;;4990187;28;20453;-77
2022/05/18 10:08:36;;;;;;;3.05;2.33;;;24.00;53.70;;;;;;4989053;28;20030;-76
2022/05/18 10:11:30;;;;;;;4.47;2.70;;;24.20;56.90;;;;;;4989136;28;20378;-76
2022/05/18 10:14:05;;;;;;;4.32;2.65;;;24.40;51.80;;;;;;4990540;28;20093;-76
2022/05/18 10:16:43;;;;;;;3.72;2.72;;;24.40;55.50;;;;;;4992732;28;20106;-77
2022/05/18 10:19:36;;;;;;;3.15;2.42;;;24.20;53.20;;;;;;4984629;28;20030;-77
2022/05/18 10:22:05;;;;;;;2.97;2.58;;;24.20;57.40;;;;;;4992986;28;20070;-76
2022/05/18 10:24:39;;;;;;;3.25;2.47;;;24.40;57.50;;;;;;4992105;28;20037;-77
2022/05/18 10:27:18;;;;;;;4.10;2.53;;;24.50;54.10;;;;;;4970025;28;20041;-76
2022/05/18 10:29:51;;;;;;;2.67;2.30;;;24.30;54.50;;;;;;4990978;28;20098;-76
2022/05/18 10:32:27;;;;;;;2.95;1.95;;;24.50;52.40;;;;;;4985386;28;20472;-76
2022/05/18 10:34:54;;;;;;;2.67;2.00;;;24.40;49.40;;;;;;4988907;28;20030;-76
2022/05/18 10:37:34;;;;;;;2.90;2.35;;;24.40;46.30;;;;;;4985047;28;20962;-76
2022/05/18 10:40:02;;;;;;;2.53;2.20;;;24.60;48.10;;;;;;4992271;28;20771;-76
2022/05/18 10:42:39;;;;;;;2.35;2.08;;;24.70;47.20;;;;;;4984863;28;20039;-76
2022/05/18 10:45:27;;;;;;;2.75;1.95;;;24.50;46.00;;;;;;4988814;28;20037;-76
2022/05/18 10:48:16;;;;;;;3.88;2.40;;;24.50;48.60;;;;;;4989495;28;20033;-76
2022/05/18 10:50:44;;;;;;;3.97;2.70;;;24.50;48.00;;;;;;4989911;28;20030;-77
2022/05/18 10:53:13;;;;;;;5.95;3.08;;;24.30;51.30;;;;;;4994083;28;20035;-77
2022/05/18 10:56:04;;;;;;;2.45;2.25;;;24.30;53.40;;;;;;4991675;28;20124;-76
2022/05/18 10:58:36;;;;;;;3.38;2.67;;;24.20;54.20;;;;;;4989992;28;20100;-77
2022/05/18 11:01:15;;;;;;;3.08;2.75;;;24.20;54.80;;;;;;4988545;28;20125;-77
2022/05/18 11:04:06;;;;;;;3.92;2.63;;;24.10;56.10;;;;;;4992059;28;20050;-77
2022/05/18 11:06:38;;;;;;;3.38;2.50;;;24.10;55.90;;;;;;4988607;28;20049;-76
2022/05/18 11:09:09;;;;;;;2.78;2.35;;;24.00;53.00;;;;;;4987720;28;20034;-76
2022/05/18 11:11:38;;;;;;;2.75;2.50;;;24.10;51.60;;;;;;4970314;28;20029;-76
2022/05/18 11:14:20;;;;;;;2.97;2.50;;;24.30;51.60;;;;;;4987115;28;20036;-77
2022/05/18 11:17:01;;;;;;;5.97;3.05;;;24.40;48.90;;;;;;4995107;28;20108;-77
2022/05/18 11:19:33;;;;;;;4.38;2.92;;;24.30;57.70;;;;;;4992951;28;21167;-77
2022/05/18 11:22:17;;;;;;;5.30;3.28;;;24.00;61.90;;;;;;4989049;28;20045;-77
2022/05/18 11:25:17;;;;;;;5.28;3.35;;;23.90;55.70;;;;;;4988746;28;20359;-76
2022/05/18 11:27:55;;;;;;;3.97;3.03;;;23.90;64.20;;;;;;4970313;28;20041;-77
2022/05/18 11:30:47;;;;;;;6.00;3.38;;;23.70;60.00;;;;;;4990534;28;20022;-77
2022/05/18 11:33:45;;;;;;;6.95;3.22;;;23.70;80.10;;;;;;4971993;28;20043;-77
2022/05/18 11:36:26;;;;;;;3.80;2.75;;;23.80;60.50;;;;;;4987386;28;20026;-77
2022/05/18 11:39:12;;;;;;;2.85;2.50;;;23.80;55.80;;;;;;4984035;28;20034;-77
2022/05/18 11:42:06;;;;;;;7.03;3.08;;;23.90;59.30;;;;;;4988746;28;20070;-78
2022/05/18 11:44:36;;;;;;;4.35;3.25;;;24.00;56.80;;;;;;4985778;28;20068;-78
2022/05/18 11:47:25;;;;;;;3.78;3.00;;;23.80;61.00;;;;;;4992071;28;20045;-77
2022/05/18 11:50:22;;;;;;;5.07;2.80;;;23.70;57.40;;;;;;4985896;28;20125;-77
2022/05/18 11:53:10;;;;;;;3.40;2.70;;;23.80;58.00;;;;;;4985207;28;20066;-78
2022/05/18 11:55:54;;;;;;;3.72;2.72;;;23.90;58.70;;;;;;4991047;28;20061;-78
2022/05/18 11:58:53;;;;;;;7.80;2.58;;;23.80;56.50;;;;;;4981525;28;20030;-76
2022/05/18 12:01:33;;;;;;;3.33;2.63;;;23.70;57.30;;;;;;4990168;28;20051;-77
2022/05/18 12:04:52;;;;;;;3.53;2.50;;;23.60;58.30;;;;;;4987970;28;20685;-77
2022/05/18 12:07:33;;;;;;;5.72;2.97;;;23.80;61.90;;;;;;4934192;29;20455;-77
2022/05/18 12:10:07;;;;;;;3.00;2.40;;;23.90;56.60;;;;;;4985478;28;20022;-77
2022/05/18 12:12:41;;;;;;;6.32;2.58;;;23.80;57.40;;;;;;4973455;28;20030;-76
2022/05/18 12:15:25;;;;;;;5.03;2.30;;;24.00;57.10;;;;;;4990441;28;20041;-76
2022/05/18 12:18:05;;;;;;;2.85;2.53;;;24.10;58.00;;;;;;4988895;28;20089;-76
2022/05/18 12:20:36;;;;;;;4.95;2.30;;;24.10;60.00;;;;;;4974944;28;20177;-76
2022/05/18 12:23:06;;;;;;;3.30;2.70;;;24.20;55.00;;;;;;4991229;28;20092;-76
2022/05/18 12:25:34;;;;;;;5.45;2.47;;;24.10;62.20;;;;;;4989481;28;20300;-77
2022/05/18 12:28:03;;;;;;;3.08;2.20;;;24.00;55.20;;;;;;4989193;28;20034;-76
2022/05/18 12:30:33;;;;;;;2.50;2.30;;;24.10;54.70;;;;;;4991176;28;20042;-77
2022/05/18 12:32:59;;;;;;;3.17;2.30;;;24.00;58.10;;;;;;4991624;28;20129;-77
2022/05/18 12:35:25;;;;;;;2.63;2.42;;;24.00;57.70;;;;;;4987274;28;20057;-76
2022/05/18 12:38:20;;;;;;;2.97;2.13;;;23.90;56.20;;;;;;4991972;28;20551;-77
2022/05/18 12:40:45;;;;;;;2.92;2.05;;;23.90;53.50;;;;;;4991065;28;20074;-78
2022/05/18 12:43:35;;;;;;;2.50;2.10;;;24.10;59.10;;;;;;4989449;28;20467;-78
2022/05/18 12:46:16;;;;;;;3.92;2.20;;;24.00;52.80;;;;;;4989467;28;20034;-77
2022/05/18 12:48:44;;;;;;;2.67;1.88;;;23.90;51.40;;;;;;4984459;28;20034;-77
2022/05/18 12:51:29;;;;;;;3.00;1.80;;;23.80;51.30;;;;;;4986191;28;20026;-78
2022/05/18 12:54:09;;;;;;;2.95;2.05;;;23.90;54.40;;;;;;4991840;28;20528;-77
2022/05/18 12:56:35;;;;;;;3.63;1.90;;;23.90;50.30;;;;;;4990853;28;20030;-77
2022/05/18 12:59:11;;;;;;;2.97;2.10;;;23.90;54.00;;;;;;4990790;28;20739;-78
2022/05/18 13:01:42;;;;;;;3.50;1.70;;;23.90;55.20;;;;;;4980128;28;20050;-78
2022/05/18 13:04:08;;;;;;;2.42;1.85;;;23.90;56.30;;;;;;4982892;28;20065;-77
2022/05/18 13:06:43;;;;;;;2.10;1.90;;;23.90;52.30;;;;;;4985324;28;20035;-77
2022/05/18 13:09:26;;;;;;;2.35;2.15;;;23.90;51.20;;;;;;4991315;28;20129;-77
2022/05/18 13:12:26;;;;;;;1.70;1.60;;;23.90;49.70;;;;;;4990233;28;20374;-77
2022/05/18 13:15:19;;;;;;;2.47;1.83;;;23.90;49.30;;;;;;4989405;28;20070;-78
2022/05/18 13:18:07;;;;;;;1.98;1.77;;;23.90;52.20;;;;;;4995554;28;20034;-77
2022/05/18 13:20:55;;;;;;;2.10;1.90;;;24.00;51.50;;;;;;4989079;28;20036;-77
2022/05/18 13:23:32;;;;;;;3.65;2.00;;;24.00;51.20;;;;;;4995196;28;20038;-77